KHOP/HOP METAR and TAF weather

Enter ICAO airport designator
Station Type Date Time Source
KHOP METAR 2020/07/04 02:56 UTC NOAA

KHOP 040256Z AUTO 04005KT 10SM CLR 23/22 A2997 RMK AO2 SLP145 T02330219 52012


Station Type Date Time Source
KHOP Decoded METAR 2020/07/04 02:56 UTC NOAA

Fort Campbell U. S. Army Airfield, KY, United States (KHOP) 36-40N 087-30W 174M
Jul 03, 2020 - 10:56 PM EDT / 2020.07.04 0256 UTC
Wind: from the NE (040 degrees) at 6 MPH (5 KT):0
Visibility: 10 mile(s):0
Sky conditions: clear
Temperature: 73.9 F (23.3 C)
Dew Point: 71.4 F (21.9 C)
Relative Humidity: 91%
Pressure (altimeter): 29.97 in. Hg (1014 hPa)
Pressure tendency: 0.04 inches (1.2 hPa) higher than three hours ago
ob: KHOP 040256Z AUTO 04005KT 10SM CLR 23/22 A2997 RMK AO2 SLP145 T02330219 52012
cycle: 3

Station Type Date Time Source
KHOP TAF 2020/07/04 00:16 UTC NOAA

TAF KHOP 040000Z 0400/0506 VRB06KT 9999 FEW080 QNH2990INS TX33/0420Z TN20/0411Z

Example: see airport list